Time;durP1;ratioP1;P1;durP2;ratioP2;P2;SDS_P1;SDS_P2;PMS_P1;PMS_P2;Temp;Humidity;BMP_temperature;BMP_pressure;BME280_temperature;BME280_humidity;BME280_pressure;Samples;Min_cycle;Max_cycle;Signal;HPM_P1;HPM_P2
2023/10/06 00:00:47;;;;;;;15.80;2.50;;;;;;;12.41;100.00;101949.09;5117822;28;20492;-69
2023/10/06 00:03:14;;;;;;;25.23;3.67;;;;;;;12.47;100.00;101949.88;5117737;28;20435;-69
2023/10/06 00:05:41;;;;;;;17.77;2.70;;;;;;;12.49;100.00;101945.81;5117525;28;20435;-69
2023/10/06 00:08:10;;;;;;;17.40;2.10;;;;;;;12.53;100.00;101940.63;5119074;28;20551;-71
2023/10/06 00:10:44;;;;;;;17.40;2.20;;;;;;;12.57;100.00;101939.78;5119241;28;20819;-71
2023/10/06 00:13:12;;;;;;;22.40;2.50;;;;;;;12.62;100.00;101941.66;5119122;28;20517;-71
2023/10/06 00:15:40;;;;;;;17.17;2.10;;;;;;;12.65;100.00;101946.50;5119844;28;20447;-71
2023/10/06 00:18:09;;;;;;;18.73;2.53;;;;;;;12.66;100.00;101945.44;5119736;28;20442;-71
2023/10/06 00:20:48;;;;;;;17.40;2.40;;;;;;;12.67;100.00;101938.09;5118973;28;20798;-71
2023/10/06 00:23:20;;;;;;;17.20;2.47;;;;;;;12.68;100.00;101935.09;5119961;28;20419;-71
2023/10/06 00:25:47;;;;;;;15.67;2.13;;;;;;;12.67;100.00;101936.19;5119353;28;20908;-71
2023/10/06 00:28:19;;;;;;;17.80;2.40;;;;;;;12.65;100.00;101941.06;5120188;28;20927;-71
2023/10/06 00:30:54;;;;;;;18.17;2.33;;;;;;;12.67;100.00;101938.91;5120078;28;20435;-71
2023/10/06 00:33:22;;;;;;;15.80;2.23;;;;;;;12.72;100.00;101940.78;5120162;28;20478;-71
2023/10/06 00:35:50;;;;;;;23.93;3.37;;;;;;;12.74;100.00;101939.38;5117496;28;20442;-71
2023/10/06 00:38:17;;;;;;;21.43;3.10;;;;;;;12.72;100.00;101936.16;5117911;28;20927;-71
2023/10/06 00:40:51;;;;;;;20.67;3.43;;;;;;;12.75;100.00;101929.31;5117768;28;20953;-72
2023/10/06 00:43:30;;;;;;;19.57;2.33;;;;;;;12.77;100.00;101929.84;5117552;28;20416;-75
2023/10/06 00:46:00;;;;;;;14.80;2.00;;;;;;;12.77;100.00;101933.38;5117236;28;22222;-71
2023/10/06 00:48:29;;;;;;;20.40;2.30;;;;;;;12.80;100.00;101932.84;5118513;28;20420;-71
2023/10/06 00:50:57;;;;;;;17.10;2.00;;;;;;;12.84;100.00;101928.44;5118702;28;20447;-71
2023/10/06 00:53:30;;;;;;;21.00;2.87;;;;;;;12.84;100.00;101928.44;5118471;28;20479;-71
2023/10/06 00:55:57;;;;;;;17.77;2.40;;;;;;;12.84;100.00;101920.28;5118424;28;20467;-71
2023/10/06 00:58:27;;;;;;;20.77;3.00;;;;;;;12.83;100.00;101920.56;5118755;28;20467;-71
2023/10/06 01:00:56;;;;;;;19.30;3.03;;;;;;;12.82;100.00;101917.03;5118783;28;20477;-71
2023/10/06 01:03:25;;;;;;;18.47;2.50;;;;;;;12.87;100.00;101919.72;5118856;28;20436;-71
2023/10/06 01:05:57;;;;;;;20.17;2.70;;;;;;;12.94;100.00;101913.16;5120213;28;20961;-71
2023/10/06 01:08:27;;;;;;;14.80;1.93;;;;;;;12.99;100.00;101913.09;5120908;28;20493;-71
2023/10/06 01:11:06;;;;;;;18.80;2.20;;;;;;;13.06;100.00;101917.13;5121693;28;20431;-71
2023/10/06 01:13:33;;;;;;;20.53;2.67;;;;;;;13.10;100.00;101920.91;5121099;28;20467;-71
2023/10/06 01:16:02;;;;;;;15.50;1.80;;;;;;;13.19;100.00;101923.81;5120654;28;20455;-71
2023/10/06 01:18:35;;;;;;;18.27;2.90;;;;;;;13.24;100.00;101915.66;5121604;28;20448;-71
2023/10/06 01:21:13;;;;;;;16.70;3.10;;;;;;;13.27;100.00;101923.22;5121704;28;20459;-71
2023/10/06 01:23:41;;;;;;;18.53;2.57;;;;;;;13.35;100.00;101929.97;5122011;28;20783;-71
2023/10/06 01:26:08;;;;;;;21.93;3.63;;;;;;;13.40;100.00;101923.66;5121223;28;20460;-71
2023/10/06 01:28:35;;;;;;;22.83;3.93;;;;;;;13.43;100.00;101913.00;5120821;28;20496;-71
2023/10/06 01:31:04;;;;;;;17.70;2.80;;;;;;;13.52;100.00;101910.47;5119603;28;20805;-71
2023/10/06 01:33:31;;;;;;;14.03;2.87;;;;;;;13.56;100.00;101917.78;5119842;28;20511;-71
2023/10/06 01:35:59;;;;;;;19.37;2.90;;;;;;;13.61;100.00;101922.34;5119870;28;20534;-70
2023/10/06 01:38:26;;;;;;;24.90;4.33;;;;;;;13.64;100.00;101919.06;5115623;28;20443;-70
2023/10/06 01:40:54;;;;;;;21.40;3.30;;;;;;;13.68;100.00;101925.56;5115949;28;20444;-70
2023/10/06 01:43:25;;;;;;;20.80;3.10;;;;;;;13.71;100.00;101924.16;5115871;28;20435;-70
2023/10/06 01:45:52;;;;;;;23.30;3.47;;;;;;;13.71;100.00;101924.16;5116199;28;20507;-70
2023/10/06 01:48:29;;;;;;;21.93;3.83;;;;;;;13.74;100.00;101929.84;5115772;28;20527;-70
2023/10/06 01:50:56;;;;;;;29.17;6.10;;;;;;;13.78;100.00;101930.09;5115767;28;20485;-70
2023/10/06 01:53:23;;;;;;;26.07;4.70;;;;;;;13.80;100.00;101931.41;5115572;28;20813;-70
2023/10/06 01:55:52;;;;;;;28.20;5.13;;;;;;;13.82;100.00;101925.69;5115493;28;20476;-70
2023/10/06 01:58:20;;;;;;;20.40;2.67;;;;;;;13.84;100.00;101935.16;5115564;28;20432;-70
2023/10/06 02:00:48;;;;;;;16.20;2.90;;;;;;;13.84;100.00;101928.91;5115441;28;20515;-70
2023/10/06 02:03:16;;;;;;;18.90;2.83;;;;;;;13.86;100.00;101932.19;5114606;28;20443;-70
2023/10/06 02:05:43;;;;;;;15.10;1.60;;;;;;;13.85;100.00;101925.06;5115066;28;20950;-70
2023/10/06 02:08:14;;;;;;;15.77;2.70;;;;;;;13.90;100.00;101919.59;5115404;28;20924;-70
2023/10/06 02:10:44;;;;;;;20.53;2.83;;;;;;;13.91;100.00;101923.94;5115610;28;20424;-69
2023/10/06 02:13:11;;;;;;;17.27;2.53;;;;;;;13.94;100.00;101928.78;5115958;28;20477;-69
2023/10/06 02:15:39;;;;;;;17.47;2.40;;;;;;;13.94;100.00;101926.06;5115655;28;20494;-69
2023/10/06 02:18:12;;;;;;;15.63;2.97;;;;;;;13.93;100.00;101929.91;5114927;28;20446;-69
2023/10/06 02:20:41;;;;;;;15.77;2.67;;;;;;;13.95;100.00;101924.19;5115287;28;20462;-69
2023/10/06 02:23:07;;;;;;;13.83;1.77;;;;;;;13.97;100.00;101916.50;5115058;28;20467;-69
2023/10/06 02:25:36;;;;;;;13.93;2.17;;;;;;;13.98;100.00;101931.75;5114977;28;20454;-70
2023/10/06 02:28:05;;;;;;;14.30;2.67;;;;;;;13.98;100.00;101929.81;5114641;28;20973;-70
2023/10/06 02:30:37;;;;;;;15.67;2.57;;;;;;;14.01;100.00;101929.25;5115307;28;20492;-70
2023/10/06 02:33:06;;;;;;;15.30;3.27;;;;;;;14.03;100.00;101932.53;5114593;28;20462;-70
2023/10/06 02:35:34;;;;;;;15.63;2.77;;;;;;;14.04;100.00;101938.78;5114682;28;20475;-70
2023/10/06 02:38:05;;;;;;;16.37;2.90;;;;;;;14.06;100.00;101933.84;5114693;28;20959;-70
2023/10/06 02:40:43;;;;;;;15.30;1.93;;;;;;;14.06;100.00;101942.00;5115386;28;20427;-70
2023/10/06 02:43:13;;;;;;;13.80;2.50;;;;;;;14.05;100.00;101940.38;5115219;28;20427;-70
2023/10/06 02:45:41;;;;;;;14.30;2.13;;;;;;;14.04;100.00;101934.13;5114255;28;20436;-70
2023/10/06 02:48:17;;;;;;;15.73;2.70;;;;;;;14.04;100.00;101936.84;5114554;28;20904;-70
2023/10/06 02:50:45;;;;;;;14.33;3.27;;;;;;;14.05;100.00;101934.94;5114597;28;20419;-70
2023/10/06 02:53:20;;;;;;;14.67;2.77;;;;;;;14.05;100.00;101926.78;5114614;28;20427;-70
2023/10/06 02:55:48;;;;;;;12.40;1.77;;;;;;;14.05;100.00;101932.22;5114166;28;21031;-70
2023/10/06 02:58:24;;;;;;;24.13;2.67;;;;;;;14.06;100.00;101928.38;5114906;28;20454;-70
2023/10/06 03:00:51;;;;;;;13.53;2.97;;;;;;;14.06;100.00;101920.22;5114488;28;20419;-70
2023/10/06 03:03:22;;;;;;;14.83;2.83;;;;;;;14.08;100.00;101918.03;5114633;28;20445;-70
2023/10/06 03:05:51;;;;;;;13.47;2.30;;;;;;;14.08;100.00;101907.94;5114859;28;20424;-70
2023/10/06 03:08:20;;;;;;;14.50;2.93;;;;;;;14.07;100.00;101905.47;5114146;28;20479;-70
2023/10/06 03:10:48;;;;;;;15.97;3.10;;;;;;;14.06;100.00;101903.88;5114246;28;20440;-70
2023/10/06 03:13:24;;;;;;;14.03;2.50;;;;;;;14.04;100.00;101906.88;5114032;28;20527;-70
2023/10/06 03:15:51;;;;;;;13.43;2.77;;;;;;;14.05;100.00;101913.16;5113948;28;20466;-70
2023/10/06 03:18:19;;;;;;;13.87;2.63;;;;;;;14.07;100.00;101908.19;5114473;28;20470;-70
2023/10/06 03:20:53;;;;;;;13.63;2.07;;;;;;;14.06;100.00;101903.88;5114167;28;20444;-70
2023/10/06 03:23:30;;;;;;;13.60;2.57;;;;;;;14.10;100.00;101899.44;5114168;28;20864;-70
2023/10/06 03:25:57;;;;;;;16.10;3.20;;;;;;;14.10;100.00;101907.63;5114253;28;20459;-70
2023/10/06 03:28:31;;;;;;;15.27;3.17;;;;;;;14.10;100.00;101896.72;5114319;28;20442;-70
2023/10/06 03:31:02;;;;;;;15.30;3.20;;;;;;;14.10;100.00;101904.91;5114473;28;20422;-70
2023/10/06 03:33:31;;;;;;;15.87;3.43;;;;;;;14.11;100.00;101904.59;5113653;28;20792;-70
2023/10/06 03:35:58;;;;;;;16.20;3.70;;;;;;;14.14;100.00;101905.94;5113921;28;20483;-70
2023/10/06 03:38:36;;;;;;;17.47;4.10;;;;;;;14.12;100.00;101897.22;5113570;28;20446;-69
2023/10/06 03:41:18;;;;;;;15.73;3.97;;;;;;;14.10;100.00;101899.44;5114326;28;20510;-69
2023/10/06 03:43:49;;;;;;;14.30;2.83;;;;;;;14.14;100.00;101895.84;5114022;28;20507;-69
2023/10/06 03:46:18;;;;;;;15.63;2.93;;;;;;;14.14;100.00;101903.22;5113516;28;20455;-69
2023/10/06 03:48:48;;;;;;;16.97;4.10;;;;;;;14.14;100.00;101895.03;5114154;28;20444;-69
2023/10/06 03:51:15;;;;;;;16.17;4.10;;;;;;;14.15;100.00;101902.09;5114075;28;20443;-69
2023/10/06 03:53:44;;;;;;;13.07;2.43;;;;;;;14.12;100.00;101903.53;5113887;28;20478;-69
2023/10/06 03:56:12;;;;;;;16.00;3.40;;;;;;;14.12;100.00;101906.25;5113411;28;20551;-69
2023/10/06 03:58:39;;;;;;;14.57;3.20;;;;;;;14.10;100.00;101902.97;5113801;28;20446;-69
2023/10/06 04:01:09;;;;;;;13.80;3.20;;;;;;;14.07;100.00;101898.09;5113794;28;20796;-69
2023/10/06 04:03:36;;;;;;;16.47;3.70;;;;;;;14.04;100.00;101901.44;5113764;28;20839;-69
2023/10/06 04:06:05;;;;;;;16.00;4.57;;;;;;;14.03;100.00;101907.16;5113396;28;20807;-69
2023/10/06 04:08:31;;;;;;;13.93;3.53;;;;;;;13.97;100.00;101892.00;5112938;28;20451;-69
2023/10/06 04:10:58;;;;;;;14.60;3.20;;;;;;;13.92;100.00;101894.78;5113855;28;20439;-69
2023/10/06 04:13:25;;;;;;;13.10;2.83;;;;;;;13.88;100.00;101892.63;5113628;28;20439;-69
2023/10/06 04:15:53;;;;;;;14.73;4.20;;;;;;;13.83;100.00;101897.34;5113481;28;20996;-69
2023/10/06 04:18:22;;;;;;;14.10;3.00;;;;;;;13.75;100.00;101887.88;5113526;28;20435;-69
2023/10/06 04:20:49;;;;;;;13.10;3.97;;;;;;;13.71;100.00;101884.13;5113538;28;20447;-69
2023/10/06 04:23:18;;;;;;;13.57;3.23;;;;;;;13.67;100.00;101896.69;5113538;28;20863;-69
2023/10/06 04:25:46;;;;;;;14.47;4.20;;;;;;;13.59;100.00;101900.03;5115353;28;20442;-69
2023/10/06 04:28:15;;;;;;;12.40;3.13;;;;;;;13.53;100.00;101895.75;5117354;28;20439;-69
2023/10/06 04:30:43;;;;;;;11.83;3.47;;;;;;;13.47;100.00;101897.72;5117623;27;20446;-69
2023/10/06 04:33:11;;;;;;;12.43;3.53;;;;;;;13.41;100.00;101892.63;5116913;28;20439;-69
2023/10/06 04:35:40;;;;;;;11.03;3.43;;;;;;;13.32;100.00;101893.22;5117280;28;20913;-70
2023/10/06 04:38:10;;;;;;;12.80;3.90;;;;;;;13.23;100.00;101885.97;5116973;28;20447;-68
2023/10/06 04:40:38;;;;;;;10.50;3.17;;;;;;;13.15;100.00;101898.28;5117202;28;20443;-69
2023/10/06 04:43:05;;;;;;;11.33;3.60;;;;;;;13.09;100.00;101896.69;5116842;28;20442;-69
2023/10/06 04:45:32;;;;;;;10.47;2.87;;;;;;;13.03;100.00;101895.13;5116826;28;20526;-69
2023/10/06 04:48:00;;;;;;;13.60;4.13;;;;;;;13.00;100.00;101898.41;5116604;28;20456;-69
2023/10/06 04:50:29;;;;;;;10.27;3.20;;;;;;;13.01;100.00;101889.16;5117009;28;20451;-69
2023/10/06 04:52:56;;;;;;;12.97;3.10;;;;;;;12.99;100.00;101883.19;5116895;28;20448;-69
2023/10/06 04:55:23;;;;;;;9.90;2.83;;;;;;;12.95;100.00;101898.44;5116922;28;20507;-69
2023/10/06 04:57:51;;;;;;;12.53;3.83;;;;;;;12.96;100.00;101897.34;5116883;28;20515;-69
2023/10/06 05:00:20;;;;;;;12.00;3.50;;;;;;;13.00;100.00;101888.34;5116589;27;20428;-69
2023/10/06 05:02:47;;;;;;;10.33;3.17;;;;;;;13.03;100.00;101889.69;5116484;28;20435;-69
2023/10/06 05:05:14;;;;;;;11.97;3.53;;;;;;;13.02;100.00;101890.78;5116412;28;20842;-70
2023/10/06 05:07:41;;;;;;;12.87;3.27;;;;;;;13.06;100.00;101894.56;5116510;28;20570;-69
2023/10/06 05:10:09;;;;;;;13.07;3.90;;;;;;;13.10;100.00;101892.88;5116276;28;20436;-68
2023/10/06 05:12:38;;;;;;;12.47;3.03;;;;;;;13.11;100.00;101889.06;5116976;28;20915;-69
2023/10/06 05:15:09;;;;;;;14.30;3.90;;;;;;;13.12;100.00;101886.06;5116608;28;20571;-70
2023/10/06 05:17:36;;;;;;;14.37;5.00;;;;;;;13.17;100.00;101892.56;5116355;28;20462;-71
2023/10/06 05:20:04;;;;;;;14.40;4.80;;;;;;;13.19;100.00;101888.44;5116004;28;20954;-69
2023/10/06 05:22:31;;;;;;;13.60;3.77;;;;;;;13.19;100.00;101884.91;5116269;28;20443;-69
2023/10/06 05:24:59;;;;;;;13.93;3.57;;;;;;;13.23;100.00;101881.34;5116415;28;20438;-69
2023/10/06 05:27:26;;;;;;;12.63;3.57;;;;;;;13.26;100.00;101883.50;5116259;28;20467;-69
2023/10/06 05:29:53;;;;;;;13.30;3.67;;;;;;;13.24;100.00;101876.75;5116204;28;20443;-70
2023/10/06 05:32:22;;;;;;;14.10;4.43;;;;;;;13.20;100.00;101868.31;5116051;28;20531;-70
2023/10/06 05:34:49;;;;;;;14.00;4.40;;;;;;;13.22;100.00;101874.28;5116317;28;20532;-70
2023/10/06 05:37:16;;;;;;;12.73;3.73;;;;;;;13.23;100.00;101869.66;5115268;28;20464;-70
2023/10/06 05:39:42;;;;;;;14.50;3.83;;;;;;;13.23;100.00;101870.47;5115993;28;20440;-70
2023/10/06 05:42:09;;;;;;;14.00;4.30;;;;;;;13.23;100.00;101881.34;5116197;28;20528;-70
2023/10/06 05:44:37;;;;;;;16.30;4.33;;;;;;;13.24;100.00;101882.19;5115573;28;20436;-70
2023/10/06 05:47:04;;;;;;;13.97;4.00;;;;;;;13.28;100.00;101883.22;5115948;28;20462;-69
2023/10/06 05:49:32;;;;;;;14.80;4.00;;;;;;;13.25;100.00;101884.63;5115792;28;20492;-69
2023/10/06 05:51:59;;;;;;;15.97;4.00;;;;;;;13.24;100.00;101876.75;5115959;27;20440;-69
2023/10/06 05:54:29;;;;;;;15.97;4.17;;;;;;;13.28;100.00;101884.06;5116147;28;20778;-69
2023/10/06 05:56:56;;;;;;;15.63;3.87;;;;;;;13.27;100.00;101890.56;5115728;28;20489;-69
2023/10/06 05:59:23;;;;;;;16.10;4.97;;;;;;;13.29;100.00;101895.75;5115248;28;20436;-69
2023/10/06 06:01:56;;;;;;;16.17;4.10;;;;;;;13.31;100.00;101888.91;5115838;28;20946;-68
2023/10/06 06:04:27;;;;;;;14.60;3.57;;;;;;;13.34;100.00;101896.50;5116011;28;20416;-73
2023/10/06 06:06:57;;;;;;;12.53;3.97;;;;;;;13.37;100.00;101886.97;5125773;22;20507;-69
2023/10/06 06:09:24;;;;;;;14.00;4.43;;;;;;;13.43;100.00;101885.00;5095219;28;20425;-69
2023/10/06 06:11:51;;;;;;;16.27;3.93;;;;;;;13.47;100.00;101888.75;5095220;28;20444;-69
2023/10/06 06:14:20;;;;;;;17.37;4.90;;;;;;;13.53;100.00;101893.84;5095121;28;20432;-69
2023/10/06 06:16:47;;;;;;;16.50;5.27;;;;;;;13.59;100.00;101878.25;5095436;28;20484;-69
2023/10/06 06:19:13;;;;;;;14.37;4.33;;;;;;;13.66;100.00;101876.00;5095095;28;20533;-69
2023/10/06 06:21:40;;;;;;;16.30;5.47;;;;;;;13.73;100.00;101876.50;5095289;28;20460;-69
2023/10/06 06:24:09;;;;;;;19.40;4.70;;;;;;;13.77;100.00;101869.34;5095384;28;20523;-69
2023/10/06 06:26:37;;;;;;;18.40;3.67;;;;;;;13.83;100.00;101870.91;5095209;28;20452;-73
2023/10/06 06:29:03;;;;;;;14.10;4.43;;;;;;;13.89;100.00;101877.09;5095323;28;20538;-73
2023/10/06 06:31:32;;;;;;;23.47;6.03;;;;;;;13.94;100.00;101877.03;5095220;28;20436;-72
2023/10/06 06:34:00;;;;;;;21.40;6.20;;;;;;;14.01;100.00;101880.22;5095559;28;20451;-76
2023/10/06 06:36:27;;;;;;;16.30;4.27;;;;;;;14.06;100.00;101882.88;5095017;28;20579;-73
2023/10/06 06:38:54;;;;;;;14.40;3.93;;;;;;;14.09;100.00;101881.50;5094788;28;20432;-72
2023/10/06 06:41:22;;;;;;;20.97;5.97;;;;;;;14.04;100.00;101885.09;5095189;28;20432;-72
2023/10/06 06:43:49;;;;;;;15.77;4.30;;;;;;;14.04;100.00;101887.00;5095284;28;20483;-71
2023/10/06 06:46:17;;;;;;;12.17;3.10;;;;;;;14.07;100.00;101894.56;5094890;28;20498;-72
2023/10/06 06:48:46;;;;;;;15.70;4.10;;;;;;;14.09;100.00;101886.94;5094824;28;20539;-73
2023/10/06 06:51:13;;;;;;;14.10;4.20;;;;;;;14.14;100.00;101873.25;5094784;28;21035;-72
2023/10/06 06:53:40;;;;;;;13.23;3.97;;;;;;;14.16;100.00;101873.75;5094565;28;20442;-73
2023/10/06 06:56:10;;;;;;;14.07;3.47;;;;;;;14.16;100.00;101871.03;5094342;28;20999;-73
2023/10/06 06:58:38;;;;;;;14.93;4.70;;;;;;;14.22;100.00;101874.50;5094644;28;20448;-73
2023/10/06 07:01:07;;;;;;;14.30;4.20;;;;;;;14.27;100.00;101888.06;5094042;28;20445;-73
2023/10/06 07:03:33;;;;;;;12.83;3.13;;;;;;;14.32;100.00;101885.25;5094251;28;21017;-72
2023/10/06 07:06:00;;;;;;;15.90;3.83;;;;;;;14.36;100.00;101889.81;5094668;28;20891;-72
2023/10/06 07:08:27;;;;;;;18.23;4.50;;;;;;;14.39;100.00;101886.53;5094143;28;20471;-72
2023/10/06 07:10:54;;;;;;;15.67;4.23;;;;;;;14.44;100.00;101882.91;5094690;28;20441;-72
2023/10/06 07:13:22;;;;;;;15.77;4.30;;;;;;;14.46;100.00;101879.88;5094687;28;20440;-72
2023/10/06 07:15:50;;;;;;;16.20;4.60;;;;;;;14.52;100.00;101879.56;5094265;28;20480;-72
2023/10/06 07:18:19;;;;;;;16.23;3.43;;;;;;;14.59;100.00;101879.16;5094243;28;20436;-72
2023/10/06 07:20:47;;;;;;;15.50;4.23;;;;;;;14.62;100.00;101868.47;5094438;28;20822;-73
2023/10/06 07:23:14;;;;;;;14.27;4.03;;;;;;;14.64;100.00;101876.34;5094578;28;20445;-72
2023/10/06 07:25:41;;;;;;;14.90;4.53;;;;;;;14.66;100.00;101855.06;5093680;28;20920;-71
2023/10/06 07:28:10;;;;;;;13.73;3.57;;;;;;;14.69;100.00;101867.28;5093775;28;20484;-71
2023/10/06 07:30:37;;;;;;;16.87;4.73;;;;;;;14.68;100.00;101869.19;5093731;28;20441;-72
2023/10/06 07:33:05;;;;;;;15.00;4.83;;;;;;;14.68;100.00;101880.13;5093715;28;20952;-72
2023/10/06 07:35:37;;;;;;;16.33;4.83;;;;;;;14.70;100.00;101880.66;5094007;28;20484;-72
2023/10/06 07:38:04;;;;;;;15.70;4.20;;;;;;;14.72;100.00;101866.69;5094240;28;20475;-72
2023/10/06 07:40:31;;;;;;;14.33;4.03;;;;;;;14.82;100.00;101867.34;5093552;28;20527;-72
2023/10/06 07:42:58;;;;;;;14.07;3.70;;;;;;;14.86;100.00;101859.38;5094152;28;20469;-70
2023/10/06 07:45:26;;;;;;;14.50;3.90;;;;;;;14.89;100.00;101862.31;5094255;28;20471;-71
2023/10/06 07:47:54;;;;;;;19.40;4.90;;;;;;;14.95;100.00;101867.69;5094088;28;20501;-71
2023/10/06 07:50:22;;;;;;;16.60;4.30;;;;;;;14.97;100.00;101862.75;5093588;28;20523;-71
2023/10/06 07:52:48;;;;;;;14.20;3.90;;;;;;;14.97;100.00;101860.03;5094293;28;20440;-71
2023/10/06 07:55:16;;;;;;;19.73;4.23;;;;;;;15.00;100.00;101875.78;5093506;28;21002;-71
2023/10/06 07:57:45;;;;;;;17.60;3.30;;;;;;;15.09;100.00;101876.72;5093317;28;20461;-71
2023/10/06 08:00:18;;;;;;;15.53;3.87;;;;;;;15.19;100.00;101867.56;5094718;28;20435;-71
2023/10/06 08:02:45;;;;;;;15.87;4.67;;;;;;;15.28;100.00;101863.00;5098137;28;20845;-71
2023/10/06 08:05:13;;;;;;;18.47;4.67;;;;;;;15.34;100.00;101859.06;5098058;28;20519;-71
2023/10/06 08:07:42;;;;;;;18.37;5.13;;;;;;;15.43;100.00;101857.25;5097384;28;20893;-71
2023/10/06 08:10:13;;;;;;;14.57;3.60;;;;;;;15.43;100.00;101860.00;5097338;28;20432;-71
2023/10/06 08:12:41;;;;;;;19.87;4.80;;;;;;;15.47;100.00;101852.00;5097624;28;20412;-72
2023/10/06 08:15:09;;;;;;;15.37;3.63;;;;;;;15.48;100.00;101848.16;5097967;28;20464;-71
2023/10/06 08:17:36;;;;;;;15.20;4.77;;;;;;;15.51;100.00;101855.75;5097860;28;20503;-71
2023/10/06 08:20:02;;;;;;;14.30;3.50;;;;;;;15.54;100.00;101849.69;5097503;28;20464;-71
2023/10/06 08:22:33;;;;;;;12.80;3.03;;;;;;;15.58;100.00;101829.66;5097668;28;20527;-70
2023/10/06 08:25:05;;;;;;;14.37;4.10;;;;;;;15.59;100.00;101833.19;5096980;28;20496;-70
2023/10/06 08:27:32;;;;;;;12.67;3.90;;;;;;;15.62;100.00;101824.38;5097249;28;20456;-71
2023/10/06 08:29:59;;;;;;;14.33;3.63;;;;;;;15.69;100.00;101824.81;5097209;28;20523;-71
2023/10/06 08:32:26;;;;;;;14.00;3.93;;;;;;;15.74;100.00;101811.03;5097180;28;20519;-71
2023/10/06 08:34:53;;;;;;;11.27;3.17;;;;;;;15.75;100.00;101809.94;5096916;28;20476;-71
2023/10/06 08:37:20;;;;;;;13.50;3.40;;;;;;;15.79;100.00;101802.72;5097350;28;20489;-71
2023/10/06 08:39:47;;;;;;;12.67;3.83;;;;;;;15.92;100.00;101803.81;5097090;28;20464;-71
2023/10/06 08:42:16;;;;;;;14.07;2.80;;;;;;;16.00;100.00;101802.31;5096927;28;20450;-71
2023/10/06 08:44:42;;;;;;;11.90;3.53;;;;;;;16.11;100.00;101799.03;5097030;28;20432;-71
2023/10/06 08:47:11;;;;;;;12.27;3.10;;;;;;;16.18;100.00;101801.34;5097060;28;20467;-71
2023/10/06 08:49:40;;;;;;;10.83;3.30;;;;;;;16.24;100.00;101800.09;5097275;28;20207;-71
2023/10/06 08:52:08;;;;;;;10.47;3.50;;;;;;;16.32;100.00;101806.75;5096894;28;20527;-71
2023/10/06 08:54:35;;;;;;;8.70;2.90;;;;;;;16.40;100.00;101808.75;5097311;28;20528;-70
2023/10/06 08:57:03;;;;;;;7.70;3.10;;;;;;;16.47;99.50;101805.56;5096664;28;20484;-70
2023/10/06 08:59:32;;;;;;;7.57;2.50;;;;;;;16.49;96.21;101808.81;5096716;28;20477;-71
2023/10/06 09:02:00;;;;;;;5.73;2.20;;;;;;;16.51;96.33;101809.28;5096543;28;20527;-71
2023/10/06 09:04:37;;;;;;;4.47;1.90;;;;;;;16.60;96.14;101810.16;5096955;28;20436;-71
2023/10/06 09:07:12;;;;;;;5.57;2.43;;;;;;;16.67;94.48;101810.53;5096335;28;20490;-71
2023/10/06 09:09:40;;;;;;;4.77;1.73;;;;;;;16.65;93.38;101807.31;5096168;28;20420;-71
2023/10/06 09:12:07;;;;;;;5.07;2.40;;;;;;;16.62;93.83;101797.00;5095447;28;20783;-71
2023/10/06 09:14:52;;;;;;;3.43;1.73;;;;;;;16.67;93.30;101805.06;5096720;28;20528;-71
2023/10/06 09:17:33;;;;;;;5.27;2.13;;;;;;;16.65;93.61;101812.78;5096809;28;20519;-71
2023/10/06 09:20:00;;;;;;;3.20;1.50;;;;;;;16.75;93.17;101800.81;5096469;28;20433;-74
2023/10/06 09:22:29;;;;;;;4.03;1.87;;;;;;;16.87;92.57;101804.59;5096419;28;20446;-73
2023/10/06 09:24:59;;;;;;;4.10;1.93;;;;;;;17.04;92.54;101797.56;5095919;28;20441;-70
2023/10/06 09:27:28;;;;;;;4.60;1.93;;;;;;;17.12;89.65;101802.28;5096462;28;20514;-71
2023/10/06 09:30:07;;;;;;;4.40;1.53;;;;;;;17.06;89.86;101803.56;5096336;28;20967;-72
2023/10/06 09:32:35;;;;;;;4.63;2.07;;;;;;;17.02;90.87;101806.09;5096362;28;20478;-71
2023/10/06 09:35:18;;;;;;;4.43;2.10;;;;;;;17.00;90.94;101793.84;5095949;28;20493;-71
2023/10/06 09:37:45;;;;;;;3.23;1.57;;;;;;;16.94;90.75;101792.38;5096252;28;20510;-71
2023/10/06 09:40:20;;;;;;;3.20;1.30;;;;;;;16.93;90.42;101785.28;5096395;28;20483;-71
2023/10/06 09:42:48;;;;;;;4.10;1.63;;;;;;;16.97;91.12;101776.13;5095820;28;20507;-71
2023/10/06 09:45:21;;;;;;;3.77;1.73;;;;;;;17.06;90.54;101768.78;5095762;28;20480;-71
2023/10/06 09:47:50;;;;;;;7.20;1.70;;;;;;;17.15;88.93;101763.31;5095609;28;20456;-71
2023/10/06 09:50:20;;;;;;;4.33;1.70;;;;;;;17.27;88.04;101760.00;5095540;28;20462;-71
2023/10/06 09:52:48;;;;;;;3.43;1.53;;;;;;;17.35;87.44;101754.53;5096266;28;20540;-71
2023/10/06 09:55:17;;;;;;;2.93;1.10;;;;;;;17.42;88.14;101766.97;5095830;28;20475;-71
2023/10/06 09:57:47;;;;;;;5.03;2.10;;;;;;;17.59;88.83;101762.31;5095624;28;20608;-71
2023/10/06 10:00:17;;;;;;;3.10;1.30;;;;;;;17.76;83.72;101758.84;5095531;28;20441;-71
2023/10/06 10:02:45;;;;;;;3.20;1.40;;;;;;;17.79;84.29;101751.91;5095479;28;20810;-71
2023/10/06 10:05:13;;;;;;;2.50;1.10;;;;;;;17.78;83.39;101744.81;5095106;28;20812;-71
2023/10/06 10:07:41;;;;;;;2.57;1.13;;;;;;;17.75;84.38;101740.78;5095244;28;20468;-71
2023/10/06 10:10:10;;;;;;;4.20;1.53;;;;;;;17.76;85.08;101753.38;5095587;28;20453;-71
2023/10/06 10:12:55;;;;;;;3.93;1.40;;;;;;;17.74;82.08;101750.13;5096310;28;20498;-71
2023/10/06 10:15:37;;;;;;;4.30;1.73;;;;;;;17.66;83.59;101748.13;5095224;28;20508;-71
2023/10/06 10:18:13;;;;;;;4.30;0.90;;;;;;;17.65;84.57;101749.28;5094850;28;20831;-72
2023/10/06 10:20:40;;;;;;;4.00;1.27;;;;;;;17.71;84.38;101742.53;5095135;28;20425;-70
2023/10/06 10:23:07;;;;;;;2.70;1.10;;;;;;;17.74;84.94;101741.91;5094773;28;20531;-73
2023/10/06 10:25:36;;;;;;;3.33;1.23;;;;;;;17.75;85.00;101742.69;5095545;28;20439;-73
2023/10/06 10:28:13;;;;;;;3.50;0.80;;;;;;;17.78;83.36;101751.09;5095071;28;20436;-72
2023/10/06 10:30:53;;;;;;;2.80;1.00;;;;;;;17.76;85.02;101736.91;5095021;28;20850;-72
2023/10/06 10:33:24;;;;;;;3.07;1.03;;;;;;;17.87;83.50;101734.66;5095090;28;20450;-72
2023/10/06 10:36:21;;;;;;;3.40;1.50;;;;;;;17.99;83.10;101718.38;5095191;28;20440;-71
2023/10/06 10:39:02;;;;;;;2.60;0.90;;;;;;;18.03;83.10;101710.31;5094864;28;20853;-72
2023/10/06 10:41:36;;;;;;;2.70;1.07;;;;;;;18.08;80.55;101708.19;5094456;28;20443;-71
2023/10/06 10:44:04;;;;;;;2.20;0.90;;;;;;;18.06;81.03;101718.69;5095199;28;20409;-71
2023/10/06 10:46:34;;;;;;;4.90;1.00;;;;;;;18.12;80.83;101702.88;5094722;28;20456;-71
2023/10/06 10:49:01;;;;;;;3.60;0.87;;;;;;;18.14;81.67;101711.56;5094508;28;20801;-71
2023/10/06 10:51:33;;;;;;;2.37;0.80;;;;;;;18.22;81.77;101710.75;5094254;28;20527;-72
2023/10/06 10:54:00;;;;;;;3.00;0.90;;;;;;;18.18;80.11;101715.28;5094298;28;20425;-71
2023/10/06 10:56:36;;;;;;;2.43;0.93;;;;;;;18.23;80.16;101717.84;5094604;28;20551;-73
2023/10/06 10:59:04;;;;;;;2.60;1.00;;;;;;;18.36;80.06;101718.81;5094890;28;20428;-72
2023/10/06 11:01:35;;;;;;;3.70;1.40;;;;;;;18.30;78.18;101717.38;5094523;28;20436;-74
2023/10/06 11:04:21;;;;;;;2.50;0.90;;;;;;;18.38;77.01;101714.63;5094885;28;20425;-74
2023/10/06 11:06:50;;;;;;;3.80;0.70;;;;;;;18.44;78.19;101711.69;5093934;28;20460;-73
2023/10/06 11:09:30;;;;;;;3.40;1.07;;;;;;;18.42;78.14;101714.78;5094997;28;20419;-72
2023/10/06 11:11:58;;;;;;;3.33;1.30;;;;;;;18.49;77.04;101708.78;5094959;28;20428;-72
2023/10/06 11:14:26;;;;;;;3.07;1.10;;;;;;;18.57;75.45;101706.00;5094312;28;20444;-71
2023/10/06 11:17:01;;;;;;;2.33;0.97;;;;;;;18.55;73.87;101690.97;5094473;28;20924;-71
2023/10/06 11:19:29;;;;;;;2.90;1.30;;;;;;;18.62;73.37;101692.09;5094489;28;20511;-70
2023/10/06 11:22:08;;;;;;;2.30;0.80;;;;;;;18.85;73.43;101692.69;5094005;28;20450;-71